Aérodrome :
LOGIN :

S'inscrire | Disclaimer

   EN    FR    IT 

 










Légende :    VFR   VFR Marginal   IFR   IFR Intensif   IFR Très Intensif
Visi : 
Plafond : 
>= 8 km
>= 3000ft
5 à 8 km
1000 à 3000 ft
1500m à 5 km
500 à 1000 ft
800 à 1500m
200 à 500 ft
< 800m
< 200 ft
Symboles :   Orages  Brouillard  Fortes neiges  Fortes précipitations  Vent > 20 kt
SIGMETs :   Divers  Orages  Givrage  Turbulence  Onde Orograph.  Cendres Volcan.






- Altitude de l'aérodrome : 265 ft
- Code IATA : FOG


LIBF - Foggia / Gino Lisa

DERNIER METAR :
  • 131450Z 24011KT 210V270 CAVOK 40/09 Q1008

METARs EXPIRÉS :
  • 131350Z 24013KT 210V270 CAVOK 41/11 Q1008
  • 131250Z 24010KT 210V280 CAVOK 41/11 Q1008
  • 131150Z 23009KT 190V300 CAVOK 41/10 Q1008
  • 131050Z VRB04KT CAVOK 40/09 Q1009

TAF TAF LIBF
Valide du 13 à 12h jusqu'au 14 à 12h UTC


131100Z 1312/1412 VRB06KT CAVOK
BECMG 1312/1314 09010KT
BECMG 1317/1319 VRB05KT
BECMG 1405/1407 34014KT



MET'MAP, la Météo Aéronautique d'un coup d'oeil ! - Copyright ORBIFLY Décembre 2007 - Disclaimer

ORBIFLY MET'MAP TEAM :

Programmation & Développement : Alexandra Zaïnal
Sur une idée originale de : Baudouin d'Aumeries
Soutien technique & logistique : Manuel Goepfert
Assistance : Marc-Olivier Méhu




SOURCES & CREDITS :

   NOAA